createdAt,value
2023-05-22T00:00:42.684Z,23.65
2023-05-22T00:03:20.951Z,20.98
2023-05-22T00:08:34.360Z,22.45
2023-05-22T00:11:09.362Z,22.83
2023-05-22T00:13:38.572Z,22.48
2023-05-22T00:16:07.375Z,22.25
2023-05-22T00:21:19.044Z,24.13
2023-05-22T00:23:46.533Z,21.67
2023-05-22T00:26:18.250Z,23.00
2023-05-22T00:28:48.506Z,22.33
2023-05-22T00:31:16.200Z,21.92
2023-05-22T00:33:44.061Z,23.63
2023-05-22T00:36:11.855Z,22.80
2023-05-22T00:38:40.808Z,23.75
2023-05-22T00:41:08.639Z,21.98
2023-05-22T00:43:36.803Z,23.05
2023-05-22T00:46:03.931Z,23.42
2023-05-22T00:48:38.079Z,23.25
2023-05-22T00:51:10.615Z,23.38
2023-05-22T00:53:37.963Z,24.42
2023-05-22T00:58:52.265Z,24.03
2023-05-22T01:01:21.737Z,24.15
2023-05-22T01:03:51.961Z,24.27
2023-05-22T01:06:27.375Z,23.55
2023-05-22T01:08:57.737Z,23.95
2023-05-22T01:12:00.391Z,24.38
2023-05-22T01:14:40.833Z,25.05
2023-05-22T01:17:18.778Z,24.42
2023-05-22T01:20:11.598Z,25.85
2023-05-22T01:28:53.761Z,24.42
2023-05-22T01:31:30.322Z,24.50
2023-05-22T01:34:02.700Z,27.05
2023-05-22T01:36:42.113Z,26.80
2023-05-22T01:39:13.598Z,25.95
2023-05-22T01:41:44.680Z,24.92
2023-05-22T01:44:13.205Z,25.17
2023-05-22T01:46:42.120Z,26.45
2023-05-22T01:49:18.421Z,26.60
2023-05-22T01:52:08.006Z,26.60
2023-05-22T02:07:05.727Z,27.27
2023-05-22T02:09:34.580Z,27.88
2023-05-22T02:14:47.066Z,26.58
2023-05-22T02:17:15.110Z,28.33
2023-05-22T02:19:43.182Z,29.48
2023-05-22T02:22:15.764Z,28.73
2023-05-22T02:24:47.674Z,26.52
2023-05-22T02:27:19.695Z,28.77
2023-05-22T02:29:49.572Z,26.27
2023-05-22T02:32:18.205Z,27.52
2023-05-22T02:34:46.532Z,28.35
2023-05-22T02:37:16.862Z,26.40
2023-05-22T02:39:45.039Z,27.40
2023-05-22T02:42:15.590Z,27.55
2023-05-22T02:44:43.954Z,28.05
2023-05-22T02:47:21.360Z,28.45
2023-05-22T02:49:49.418Z,28.63
2023-05-22T03:16:56.775Z,28.02
2023-05-22T03:19:45.699Z,28.83
2023-05-22T03:22:23.871Z,28.63
2023-05-22T03:24:53.220Z,28.48
2023-05-22T03:27:20.799Z,27.50
2023-05-22T03:29:54.113Z,28.65
2023-05-22T03:32:22.253Z,30.23
2023-05-22T03:34:52.964Z,29.60
2023-05-22T03:40:08.537Z,28.58
2023-05-22T03:55:00.191Z,30.98
2023-05-22T03:57:32.418Z,29.52
2023-05-22T04:00:17.283Z,27.88
2023-05-22T04:02:45.656Z,30.75
2023-05-22T04:05:20.762Z,29.73
2023-05-22T04:07:47.813Z,31.45
2023-05-22T04:12:57.768Z,29.45
2023-05-22T04:15:27.763Z,31.23
2023-05-22T04:17:57.288Z,28.48
2023-05-22T04:20:25.726Z,30.23
2023-05-22T04:22:55.017Z,29.88
2023-05-22T04:25:23.526Z,29.05
2023-05-22T04:27:50.845Z,27.88
2023-05-22T04:30:19.090Z,28.83
2023-05-22T04:32:51.511Z,28.42
2023-05-22T04:35:24.375Z,27.58
2023-05-22T04:37:52.069Z,27.77
2023-05-22T04:40:24.519Z,31.10
2023-05-22T04:42:55.572Z,29.95
2023-05-22T04:45:25.692Z,29.10
2023-05-22T04:47:53.589Z,29.02
2023-05-22T04:50:31.509Z,30.90
2023-05-22T04:53:06.247Z,30.65
2023-05-22T05:19:09.190Z,28.27
2023-05-22T05:21:55.425Z,31.33
2023-05-22T05:24:22.590Z,31.00
2023-05-22T05:26:52.287Z,30.55
2023-05-22T05:29:24.651Z,29.38
2023-05-22T05:37:21.409Z,30.42
2023-05-22T05:42:41.885Z,29.60
2023-05-22T05:51:14.807Z,29.83
2023-05-22T06:05:20.598Z,35.33
2023-05-22T06:10:53.369Z,36.72
2023-05-22T06:13:29.711Z,34.95
2023-05-22T07:07:56.629Z,41.38
2023-05-22T13:28:46.548Z,29.92
2023-05-22T17:19:43.866Z,45.67
2023-05-22T17:22:50.569Z,45.75
2023-05-22T17:42:44.647Z,43.85
2023-05-22T18:56:14.606Z,43.30
2023-05-22T18:58:43.901Z,42.92
2023-05-22T19:01:20.247Z,42.60
2023-05-22T19:03:48.924Z,39.60
2023-05-22T19:06:21.369Z,41.10
2023-05-22T19:08:52.856Z,39.75
2023-05-22T19:11:20.829Z,39.65
2023-05-22T19:13:49.208Z,38.72
2023-05-22T19:16:24.133Z,39.72
2023-05-22T19:18:52.141Z,39.80
2023-05-22T19:21:23.964Z,36.88
2023-05-22T19:23:52.388Z,39.78
2023-05-22T19:26:20.052Z,32.63
2023-05-22T19:28:47.946Z,37.65
2023-05-22T19:31:18.705Z,36.95
2023-05-22T19:33:46.333Z,34.38
2023-05-22T19:36:15.535Z,36.33
2023-05-22T19:38:46.598Z,34.60
2023-05-22T19:41:16.365Z,34.70
2023-05-22T19:43:45.654Z,38.05
2023-05-22T19:46:13.477Z,39.13
2023-05-22T19:48:41.189Z,36.75
2023-05-22T19:51:09.425Z,37.00
2023-05-22T19:53:38.134Z,36.05
2023-05-22T19:56:05.140Z,35.72
2023-05-22T19:58:32.082Z,37.35
2023-05-22T20:00:59.214Z,38.65
2023-05-22T20:03:26.698Z,39.00
2023-05-22T20:05:53.912Z,36.60
2023-05-22T20:08:22.592Z,36.42
2023-05-22T20:10:49.762Z,37.35
2023-05-22T20:13:16.846Z,39.13
2023-05-22T20:15:47.698Z,35.83
2023-05-22T20:18:14.745Z,39.40
2023-05-22T20:20:41.671Z,34.03
2023-05-22T20:23:08.607Z,36.97
2023-05-22T20:25:36.185Z,36.45
2023-05-22T20:28:03.880Z,39.08
2023-05-22T20:30:31.311Z,36.05
2023-05-22T20:32:58.385Z,37.08
2023-05-22T20:35:26.658Z,38.10
2023-05-22T20:37:53.590Z,34.83
2023-05-22T20:40:20.591Z,35.20
2023-05-22T20:42:47.802Z,38.17
2023-05-22T20:45:16.264Z,35.00
2023-05-22T20:47:43.977Z,37.28
2023-05-22T20:50:11.413Z,38.95
2023-05-22T20:52:38.358Z,34.60
2023-05-22T20:55:05.721Z,34.92
2023-05-22T20:57:35.065Z,35.63
2023-05-22T21:00:02.330Z,37.47
2023-05-22T21:02:29.259Z,36.13
2023-05-22T21:04:56.302Z,35.85
2023-05-22T21:07:23.254Z,42.00
2023-05-22T21:09:50.183Z,38.42
2023-05-22T21:12:17.300Z,37.28
2023-05-22T21:14:46.111Z,40.40
2023-05-22T21:17:13.388Z,38.47
2023-05-22T21:19:40.290Z,36.65
2023-05-22T21:22:07.489Z,40.17
2023-05-22T21:24:34.367Z,38.97
2023-05-22T21:27:01.341Z,36.38
2023-05-22T21:29:28.201Z,35.80
2023-05-22T21:31:55.104Z,35.50
2023-05-22T21:34:22.199Z,33.33
2023-05-22T21:36:50.194Z,32.67
2023-05-22T21:39:17.225Z,32.75
2023-05-22T21:41:44.178Z,30.80
2023-05-22T21:44:11.175Z,29.75
2023-05-22T21:46:38.130Z,31.27
2023-05-22T21:49:06.290Z,29.33
2023-05-22T21:51:33.389Z,31.40
2023-05-22T21:54:00.310Z,28.48
2023-05-22T21:56:27.294Z,28.42
2023-05-22T21:58:54.190Z,28.52
2023-05-22T22:01:32.287Z,25.02
2023-05-22T22:03:59.197Z,30.50
2023-05-22T22:06:26.426Z,27.38
2023-05-22T22:08:53.435Z,26.45
2023-05-22T22:11:20.554Z,27.88
2023-05-22T22:13:47.692Z,28.80
2023-05-22T22:16:15.027Z,28.60
2023-05-22T22:18:41.983Z,29.10
2023-05-22T22:21:08.835Z,29.02
2023-05-22T22:23:35.690Z,26.40
2023-05-22T22:26:02.562Z,26.48
2023-05-22T22:28:29.509Z,27.42
2023-05-22T22:30:57.602Z,27.77
2023-05-22T22:33:25.021Z,27.13
2023-05-22T22:35:52.517Z,28.42
2023-05-22T22:38:19.442Z,27.33
2023-05-22T22:40:46.364Z,27.40
2023-05-22T22:43:14.625Z,27.48
2023-05-22T22:45:41.789Z,29.80
2023-05-22T22:48:08.899Z,30.75
2023-05-22T22:50:35.892Z,31.13
2023-05-22T22:53:02.788Z,30.85
2023-05-22T22:55:29.832Z,34.65
2023-05-22T22:57:56.947Z,36.13
2023-05-22T23:00:24.057Z,39.85
2023-05-22T23:02:51.256Z,36.97
2023-05-22T23:05:20.623Z,37.22
2023-05-22T23:07:48.238Z,34.53
2023-05-22T23:10:16.211Z,35.67
2023-05-22T23:12:43.467Z,35.65
2023-05-22T23:15:13.272Z,37.15
2023-05-22T23:17:41.706Z,35.35
2023-05-22T23:20:09.113Z,36.60
2023-05-22T23:22:36.046Z,35.35
2023-05-22T23:25:03.156Z,32.58
2023-05-22T23:27:29.979Z,35.03
2023-05-22T23:29:58.013Z,36.97
2023-05-22T23:32:25.133Z,33.72
2023-05-22T23:34:52.163Z,34.75
2023-05-22T23:37:19.108Z,31.08
2023-05-22T23:39:45.982Z,30.90
2023-05-22T23:42:13.243Z,31.80
2023-05-22T23:44:40.123Z,32.50
2023-05-22T23:47:07.532Z,31.40
2023-05-22T23:49:34.581Z,29.67
2023-05-22T23:52:01.473Z,32.25
2023-05-22T23:54:28.415Z,30.58
2023-05-22T23:56:55.356Z,30.70
2023-05-22T23:59:22.390Z,31.42
